sensor_id;sensor_type;location;lat;lon;timestamp;P1;durP1;ratioP1;P2;durP2;ratioP2
53108;SDS011;39007;53.090;6.074;2023-07-24T00:00:21;14.48;;;6.57;;
53108;SDS011;39007;53.090;6.074;2023-07-24T00:02:48;13.43;;;6.03;;
53108;SDS011;39007;53.090;6.074;2023-07-24T00:05:14;12.32;;;6.05;;
53108;SDS011;39007;53.090;6.074;2023-07-24T00:07:40;12.65;;;6.13;;
53108;SDS011;39007;53.090;6.074;2023-07-24T00:10:06;12.05;;;5.47;;
53108;SDS011;39007;53.090;6.074;2023-07-24T00:12:32;11.70;;;5.97;;
53108;SDS011;39007;53.090;6.074;2023-07-24T00:14:58;12.90;;;5.45;;
53108;SDS011;39007;53.090;6.074;2023-07-24T00:17:24;14.23;;;5.55;;
53108;SDS011;39007;53.090;6.074;2023-07-24T00:19:50;16.08;;;5.80;;
53108;SDS011;39007;53.090;6.074;2023-07-24T00:22:16;14.38;;;5.90;;
53108;SDS011;39007;53.090;6.074;2023-07-24T00:24:42;13.50;;;6.32;;
53108;SDS011;39007;53.090;6.074;2023-07-24T00:27:09;13.85;;;5.97;;
53108;SDS011;39007;53.090;6.074;2023-07-24T00:29:35;12.77;;;6.47;;
53108;SDS011;39007;53.090;6.074;2023-07-24T00:32:01;14.00;;;6.32;;
53108;SDS011;39007;53.090;6.074;2023-07-24T00:34:27;12.18;;;6.18;;
53108;SDS011;39007;53.090;6.074;2023-07-24T00:36:53;14.25;;;6.53;;
53108;SDS011;39007;53.090;6.074;2023-07-24T00:39:19;17.33;;;6.10;;
53108;SDS011;39007;53.090;6.074;2023-07-24T00:41:45;14.10;;;6.38;;
53108;SDS011;39007;53.090;6.074;2023-07-24T00:44:11;12.23;;;6.20;;
53108;SDS011;39007;53.090;6.074;2023-07-24T00:46:37;14.70;;;6.43;;
53108;SDS011;39007;53.090;6.074;2023-07-24T00:49:03;13.57;;;6.60;;
53108;SDS011;39007;53.090;6.074;2023-07-24T00:51:30;13.35;;;6.95;;
53108;SDS011;39007;53.090;6.074;2023-07-24T00:53:57;13.48;;;6.57;;
53108;SDS011;39007;53.090;6.074;2023-07-24T00:56:25;14.30;;;6.38;;
53108;SDS011;39007;53.090;6.074;2023-07-24T00:58:52;17.23;;;7.15;;
53108;SDS011;39007;53.090;6.074;2023-07-24T01:01:20;15.68;;;7.40;;
53108;SDS011;39007;53.090;6.074;2023-07-24T01:03:46;16.02;;;7.15;;
53108;SDS011;39007;53.090;6.074;2023-07-24T01:06:13;14.68;;;7.50;;
53108;SDS011;39007;53.090;6.074;2023-07-24T01:08:39;16.42;;;7.38;;
53108;SDS011;39007;53.090;6.074;2023-07-24T01:16:39;16.00;;;7.88;;
53108;SDS011;39007;53.090;6.074;2023-07-24T01:27:23;18.50;;;8.18;;
53108;SDS011;39007;53.090;6.074;2023-07-24T01:29:50;14.93;;;7.35;;
53108;SDS011;39007;53.090;6.074;2023-07-24T01:32:16;18.52;;;7.75;;
53108;SDS011;39007;53.090;6.074;2023-07-24T01:34:42;17.92;;;8.60;;
53108;SDS011;39007;53.090;6.074;2023-07-24T01:37:08;13.88;;;7.75;;
53108;SDS011;39007;53.090;6.074;2023-07-24T01:39:35;15.18;;;8.93;;
53108;SDS011;39007;53.090;6.074;2023-07-24T01:42:01;18.67;;;9.15;;
53108;SDS011;39007;53.090;6.074;2023-07-24T01:44:27;14.95;;;8.93;;
53108;SDS011;39007;53.090;6.074;2023-07-24T01:46:54;15.50;;;8.90;;
53108;SDS011;39007;53.090;6.074;2023-07-24T01:49:20;15.68;;;9.45;;
53108;SDS011;39007;53.090;6.074;2023-07-24T01:51:46;14.48;;;9.43;;
53108;SDS011;39007;53.090;6.074;2023-07-24T01:54:12;14.75;;;9.65;;
53108;SDS011;39007;53.090;6.074;2023-07-24T01:56:39;13.45;;;9.85;;
53108;SDS011;39007;53.090;6.074;2023-07-24T01:59:05;18.02;;;10.65;;
53108;SDS011;39007;53.090;6.074;2023-07-24T02:01:31;17.08;;;11.07;;
53108;SDS011;39007;53.090;6.074;2023-07-24T02:03:57;15.13;;;10.30;;
53108;SDS011;39007;53.090;6.074;2023-07-24T02:06:23;16.52;;;10.38;;
53108;SDS011;39007;53.090;6.074;2023-07-24T02:08:49;16.13;;;9.65;;
53108;SDS011;39007;53.090;6.074;2023-07-24T02:11:16;15.75;;;9.32;;
53108;SDS011;39007;53.090;6.074;2023-07-24T02:13:46;18.00;;;9.25;;
53108;SDS011;39007;53.090;6.074;2023-07-24T02:16:12;15.18;;;9.10;;
53108;SDS011;39007;53.090;6.074;2023-07-24T02:18:40;14.30;;;8.68;;
53108;SDS011;39007;53.090;6.074;2023-07-24T02:21:06;14.00;;;8.70;;
53108;SDS011;39007;53.090;6.074;2023-07-24T02:23:32;16.48;;;8.10;;
53108;SDS011;39007;53.090;6.074;2023-07-24T02:25:58;20.42;;;8.57;;
53108;SDS011;39007;53.090;6.074;2023-07-24T02:28:24;15.15;;;7.95;;
53108;SDS011;39007;53.090;6.074;2023-07-24T02:30:50;14.27;;;8.02;;
53108;SDS011;39007;53.090;6.074;2023-07-24T02:33:17;13.30;;;7.85;;
53108;SDS011;39007;53.090;6.074;2023-07-24T02:35:43;14.85;;;7.55;;
53108;SDS011;39007;53.090;6.074;2023-07-24T02:38:09;11.95;;;7.68;;
53108;SDS011;39007;53.090;6.074;2023-07-24T02:40:35;14.50;;;7.55;;
53108;SDS011;39007;53.090;6.074;2023-07-24T02:43:01;17.02;;;7.53;;
53108;SDS011;39007;53.090;6.074;2023-07-24T02:45:27;19.00;;;8.00;;
53108;SDS011;39007;53.090;6.074;2023-07-24T02:47:53;13.77;;;6.80;;
53108;SDS011;39007;53.090;6.074;2023-07-24T02:50:19;14.15;;;7.43;;
53108;SDS011;39007;53.090;6.074;2023-07-24T02:52:45;14.52;;;7.30;;
53108;SDS011;39007;53.090;6.074;2023-07-24T02:55:12;13.52;;;7.22;;
53108;SDS011;39007;53.090;6.074;2023-07-24T02:57:38;12.55;;;7.22;;
53108;SDS011;39007;53.090;6.074;2023-07-24T03:00:04;15.52;;;7.90;;
53108;SDS011;39007;53.090;6.074;2023-07-24T03:02:30;15.80;;;6.70;;
53108;SDS011;39007;53.090;6.074;2023-07-24T03:04:56;16.77;;;7.25;;
53108;SDS011;39007;53.090;6.074;2023-07-24T03:07:22;15.98;;;7.18;;
53108;SDS011;39007;53.090;6.074;2023-07-24T03:09:50;15.23;;;7.57;;
53108;SDS011;39007;53.090;6.074;2023-07-24T03:12:16;19.05;;;8.05;;
53108;SDS011;39007;53.090;6.074;2023-07-24T03:14:42;12.15;;;6.93;;
53108;SDS011;39007;53.090;6.074;2023-07-24T03:17:08;17.58;;;7.20;;
53108;SDS011;39007;53.090;6.074;2023-07-24T03:19:34;15.88;;;7.47;;
53108;SDS011;39007;53.090;6.074;2023-07-24T03:22:01;15.85;;;7.28;;
53108;SDS011;39007;53.090;6.074;2023-07-24T03:24:27;19.15;;;7.78;;
53108;SDS011;39007;53.090;6.074;2023-07-24T03:26:53;14.77;;;7.05;;
53108;SDS011;39007;53.090;6.074;2023-07-24T03:29:19;15.45;;;7.28;;
53108;SDS011;39007;53.090;6.074;2023-07-24T03:31:45;12.63;;;6.80;;
53108;SDS011;39007;53.090;6.074;2023-07-24T03:34:11;12.57;;;6.40;;
53108;SDS011;39007;53.090;6.074;2023-07-24T03:36:37;14.18;;;6.95;;
53108;SDS011;39007;53.090;6.074;2023-07-24T03:39:06;16.85;;;6.72;;
53108;SDS011;39007;53.090;6.074;2023-07-24T03:41:32;17.00;;;7.30;;
53108;SDS011;39007;53.090;6.074;2023-07-24T03:43:58;14.85;;;6.78;;
53108;SDS011;39007;53.090;6.074;2023-07-24T03:46:24;14.68;;;6.95;;
53108;SDS011;39007;53.090;6.074;2023-07-24T03:48:51;12.27;;;6.47;;
53108;SDS011;39007;53.090;6.074;2023-07-24T03:51:17;14.30;;;6.68;;
53108;SDS011;39007;53.090;6.074;2023-07-24T03:53:43;15.43;;;7.03;;
53108;SDS011;39007;53.090;6.074;2023-07-24T03:56:09;12.38;;;6.95;;
53108;SDS011;39007;53.090;6.074;2023-07-24T03:58:35;15.57;;;6.85;;
53108;SDS011;39007;53.090;6.074;2023-07-24T04:01:01;15.93;;;7.10;;
53108;SDS011;39007;53.090;6.074;2023-07-24T04:03:27;11.82;;;6.95;;
53108;SDS011;39007;53.090;6.074;2023-07-24T04:05:53;11.63;;;6.78;;
53108;SDS011;39007;53.090;6.074;2023-07-24T04:08:19;15.82;;;7.10;;
53108;SDS011;39007;53.090;6.074;2023-07-24T04:10:45;14.32;;;7.22;;
53108;SDS011;39007;53.090;6.074;2023-07-24T04:13:11;12.57;;;7.45;;
53108;SDS011;39007;53.090;6.074;2023-07-24T04:15:38;13.73;;;7.07;;
53108;SDS011;39007;53.090;6.074;2023-07-24T04:18:04;12.35;;;7.80;;
53108;SDS011;39007;53.090;6.074;2023-07-24T04:20:30;13.85;;;7.60;;
53108;SDS011;39007;53.090;6.074;2023-07-24T04:22:56;13.95;;;7.55;;
53108;SDS011;39007;53.090;6.074;2023-07-24T04:25:23;13.52;;;7.68;;
53108;SDS011;39007;53.090;6.074;2023-07-24T04:27:49;14.57;;;7.55;;
53108;SDS011;39007;53.090;6.074;2023-07-24T04:30:15;11.38;;;7.43;;
53108;SDS011;39007;53.090;6.074;2023-07-24T04:32:41;15.52;;;7.55;;
53108;SDS011;39007;53.090;6.074;2023-07-24T04:35:07;11.98;;;7.22;;
53108;SDS011;39007;53.090;6.074;2023-07-24T04:37:34;15.45;;;7.45;;
53108;SDS011;39007;53.090;6.074;2023-07-24T04:40:00;17.92;;;8.07;;
53108;SDS011;39007;53.090;6.074;2023-07-24T04:42:26;14.20;;;8.30;;
53108;SDS011;39007;53.090;6.074;2023-07-24T04:44:52;14.45;;;8.40;;
53108;SDS011;39007;53.090;6.074;2023-07-24T04:47:18;14.07;;;8.23;;
53108;SDS011;39007;53.090;6.074;2023-07-24T04:49:44;15.30;;;8.35;;
53108;SDS011;39007;53.090;6.074;2023-07-24T04:52:10;15.27;;;8.63;;
53108;SDS011;39007;53.090;6.074;2023-07-24T04:54:36;14.32;;;8.18;;
53108;SDS011;39007;53.090;6.074;2023-07-24T04:57:02;12.82;;;8.20;;
53108;SDS011;39007;53.090;6.074;2023-07-24T04:59:29;13.02;;;8.45;;
53108;SDS011;39007;53.090;6.074;2023-07-24T05:01:55;11.48;;;8.60;;
53108;SDS011;39007;53.090;6.074;2023-07-24T05:04:21;12.98;;;9.07;;
53108;SDS011;39007;53.090;6.074;2023-07-24T05:06:47;12.85;;;8.80;;
53108;SDS011;39007;53.090;6.074;2023-07-24T05:09:13;12.38;;;8.27;;
53108;SDS011;39007;53.090;6.074;2023-07-24T05:11:39;14.40;;;9.23;;
53108;SDS011;39007;53.090;6.074;2023-07-24T05:14:07;15.70;;;9.80;;
53108;SDS011;39007;53.090;6.074;2023-07-24T05:16:33;14.18;;;8.90;;
53108;SDS011;39007;53.090;6.074;2023-07-24T05:18:59;13.52;;;8.90;;
53108;SDS011;39007;53.090;6.074;2023-07-24T05:21:25;15.00;;;9.95;;
53108;SDS011;39007;53.090;6.074;2023-07-24T05:23:51;13.38;;;9.38;;
53108;SDS011;39007;53.090;6.074;2023-07-24T05:26:17;12.25;;;8.95;;
53108;SDS011;39007;53.090;6.074;2023-07-24T05:28:43;12.10;;;8.90;;
53108;SDS011;39007;53.090;6.074;2023-07-24T05:31:10;15.15;;;9.50;;
53108;SDS011;39007;53.090;6.074;2023-07-24T05:33:36;15.32;;;9.05;;
53108;SDS011;39007;53.090;6.074;2023-07-24T05:36:03;15.63;;;9.23;;
53108;SDS011;39007;53.090;6.074;2023-07-24T05:38:29;14.68;;;8.50;;
53108;SDS011;39007;53.090;6.074;2023-07-24T05:43:21;12.57;;;7.78;;
53108;SDS011;39007;53.090;6.074;2023-07-24T05:45:47;16.33;;;7.32;;
53108;SDS011;39007;53.090;6.074;2023-07-24T05:48:13;16.75;;;7.80;;
53108;SDS011;39007;53.090;6.074;2023-07-24T05:50:39;18.08;;;7.75;;
53108;SDS011;39007;53.090;6.074;2023-07-24T05:53:06;17.63;;;8.98;;
53108;SDS011;39007;53.090;6.074;2023-07-24T05:55:32;15.90;;;7.88;;
53108;SDS011;39007;53.090;6.074;2023-07-24T05:57:58;17.15;;;7.60;;
53108;SDS011;39007;53.090;6.074;2023-07-24T06:00:24;14.63;;;7.03;;
53108;SDS011;39007;53.090;6.074;2023-07-24T06:02:50;17.13;;;7.97;;
53108;SDS011;39007;53.090;6.074;2023-07-24T06:05:16;16.83;;;7.55;;
53108;SDS011;39007;53.090;6.074;2023-07-24T06:07:44;16.50;;;7.70;;
53108;SDS011;39007;53.090;6.074;2023-07-24T06:10:10;15.23;;;7.63;;
53108;SDS011;39007;53.090;6.074;2023-07-24T06:12:37;17.65;;;7.82;;
53108;SDS011;39007;53.090;6.074;2023-07-24T06:15:03;18.67;;;8.07;;
53108;SDS011;39007;53.090;6.074;2023-07-24T06:17:29;17.25;;;7.30;;
53108;SDS011;39007;53.090;6.074;2023-07-24T06:19:56;20.27;;;7.63;;
53108;SDS011;39007;53.090;6.074;2023-07-24T06:22:22;18.08;;;7.80;;
53108;SDS011;39007;53.090;6.074;2023-07-24T06:24:48;16.65;;;7.53;;
53108;SDS011;39007;53.090;6.074;2023-07-24T06:27:14;17.15;;;7.30;;
53108;SDS011;39007;53.090;6.074;2023-07-24T06:29:40;15.43;;;7.43;;
53108;SDS011;39007;53.090;6.074;2023-07-24T06:32:07;18.30;;;7.85;;
53108;SDS011;39007;53.090;6.074;2023-07-24T06:34:33;15.95;;;7.65;;
53108;SDS011;39007;53.090;6.074;2023-07-24T06:36:59;19.70;;;7.65;;
53108;SDS011;39007;53.090;6.074;2023-07-24T06:39:25;18.23;;;7.72;;
53108;SDS011;39007;53.090;6.074;2023-07-24T06:41:51;19.75;;;7.97;;
53108;SDS011;39007;53.090;6.074;2023-07-24T06:44:18;17.30;;;6.95;;
53108;SDS011;39007;53.090;6.074;2023-07-24T06:46:44;18.10;;;7.65;;
53108;SDS011;39007;53.090;6.074;2023-07-24T06:49:10;22.67;;;8.43;;
53108;SDS011;39007;53.090;6.074;2023-07-24T06:51:36;19.83;;;7.85;;
53108;SDS011;39007;53.090;6.074;2023-07-24T06:54:03;17.85;;;7.70;;
53108;SDS011;39007;53.090;6.074;2023-07-24T06:56:30;20.25;;;8.07;;
53108;SDS011;39007;53.090;6.074;2023-07-24T06:58:56;18.73;;;7.60;;
53108;SDS011;39007;53.090;6.074;2023-07-24T07:01:22;25.55;;;8.43;;
53108;SDS011;39007;53.090;6.074;2023-07-24T07:03:48;20.77;;;8.23;;
53108;SDS011;39007;53.090;6.074;2023-07-24T07:06:14;21.20;;;7.68;;
53108;SDS011;39007;53.090;6.074;2023-07-24T07:08:40;18.65;;;7.60;;
53108;SDS011;39007;53.090;6.074;2023-07-24T07:11:06;18.92;;;8.15;;
53108;SDS011;39007;53.090;6.074;2023-07-24T07:13:32;20.17;;;7.75;;
53108;SDS011;39007;53.090;6.074;2023-07-24T07:15:59;21.10;;;8.55;;
53108;SDS011;39007;53.090;6.074;2023-07-24T07:18:25;21.00;;;8.50;;
53108;SDS011;39007;53.090;6.074;2023-07-24T07:20:51;22.02;;;8.65;;
53108;SDS011;39007;53.090;6.074;2023-07-24T07:23:18;22.25;;;8.68;;
53108;SDS011;39007;53.090;6.074;2023-07-24T07:25:45;20.52;;;9.00;;
53108;SDS011;39007;53.090;6.074;2023-07-24T07:28:11;22.45;;;8.45;;
53108;SDS011;39007;53.090;6.074;2023-07-24T07:30:38;23.15;;;9.00;;
53108;SDS011;39007;53.090;6.074;2023-07-24T07:33:04;18.83;;;9.10;;
53108;SDS011;39007;53.090;6.074;2023-07-24T07:35:33;20.98;;;9.68;;
53108;SDS011;39007;53.090;6.074;2023-07-24T07:38:00;23.70;;;9.65;;
53108;SDS011;39007;53.090;6.074;2023-07-24T07:40:26;24.90;;;9.65;;
53108;SDS011;39007;53.090;6.074;2023-07-24T07:42:55;19.25;;;8.50;;
53108;SDS011;39007;53.090;6.074;2023-07-24T07:45:22;24.98;;;9.88;;
53108;SDS011;39007;53.090;6.074;2023-07-24T07:47:49;22.02;;;9.80;;
53108;SDS011;39007;53.090;6.074;2023-07-24T07:50:15;21.95;;;9.55;;
53108;SDS011;39007;53.090;6.074;2023-07-24T07:52:41;20.88;;;9.88;;
53108;SDS011;39007;53.090;6.074;2023-07-24T07:55:07;23.55;;;8.93;;
53108;SDS011;39007;53.090;6.074;2023-07-24T07:57:37;23.58;;;9.63;;
53108;SDS011;39007;53.090;6.074;2023-07-24T08:00:03;18.23;;;8.63;;
53108;SDS011;39007;53.090;6.074;2023-07-24T08:02:33;19.63;;;9.15;;
53108;SDS011;39007;53.090;6.074;2023-07-24T08:04:59;18.83;;;9.40;;
53108;SDS011;39007;53.090;6.074;2023-07-24T08:07:25;22.73;;;10.25;;
53108;SDS011;39007;53.090;6.074;2023-07-24T08:09:51;19.58;;;9.77;;
53108;SDS011;39007;53.090;6.074;2023-07-24T08:12:18;22.88;;;9.95;;
53108;SDS011;39007;53.090;6.074;2023-07-24T08:14:44;22.25;;;10.00;;
53108;SDS011;39007;53.090;6.074;2023-07-24T08:17:10;21.75;;;10.02;;
53108;SDS011;39007;53.090;6.074;2023-07-24T08:19:36;22.63;;;10.40;;
53108;SDS011;39007;53.090;6.074;2023-07-24T08:22:02;26.15;;;11.63;;
53108;SDS011;39007;53.090;6.074;2023-07-24T08:24:33;21.75;;;10.35;;
53108;SDS011;39007;53.090;6.074;2023-07-24T08:26:59;24.80;;;12.50;;
53108;SDS011;39007;53.090;6.074;2023-07-24T08:29:25;23.17;;;10.48;;
53108;SDS011;39007;53.090;6.074;2023-07-24T08:31:51;20.08;;;9.48;;
53108;SDS011;39007;53.090;6.074;2023-07-24T08:34:17;23.92;;;9.90;;
53108;SDS011;39007;53.090;6.074;2023-07-24T08:36:43;23.70;;;9.38;;
53108;SDS011;39007;53.090;6.074;2023-07-24T08:39:09;20.25;;;8.90;;
53108;SDS011;39007;53.090;6.074;2023-07-24T08:41:36;19.38;;;9.02;;
53108;SDS011;39007;53.090;6.074;2023-07-24T08:44:03;20.42;;;8.95;;
53108;SDS011;39007;53.090;6.074;2023-07-24T08:46:29;20.02;;;8.32;;
53108;SDS011;39007;53.090;6.074;2023-07-24T08:48:56;19.95;;;8.35;;
53108;SDS011;39007;53.090;6.074;2023-07-24T08:51:22;19.30;;;8.27;;
53108;SDS011;39007;53.090;6.074;2023-07-24T08:53:48;20.23;;;7.57;;
53108;SDS011;39007;53.090;6.074;2023-07-24T08:56:14;21.15;;;8.18;;
53108;SDS011;39007;53.090;6.074;2023-07-24T08:58:41;21.98;;;9.65;;
53108;SDS011;39007;53.090;6.074;2023-07-24T09:01:07;18.75;;;8.68;;
53108;SDS011;39007;53.090;6.074;2023-07-24T09:03:34;21.20;;;9.63;;
53108;SDS011;39007;53.090;6.074;2023-07-24T09:06:00;19.83;;;9.45;;
53108;SDS011;39007;53.090;6.074;2023-07-24T09:08:29;19.40;;;9.65;;
53108;SDS011;39007;53.090;6.074;2023-07-24T09:10:56;16.80;;;8.82;;
53108;SDS011;39007;53.090;6.074;2023-07-24T09:13:22;16.63;;;8.95;;
53108;SDS011;39007;53.090;6.074;2023-07-24T09:15:48;14.15;;;8.68;;
53108;SDS011;39007;53.090;6.074;2023-07-24T09:18:14;20.35;;;9.20;;
53108;SDS011;39007;53.090;6.074;2023-07-24T09:20:42;17.60;;;8.57;;
53108;SDS011;39007;53.090;6.074;2023-07-24T09:23:08;17.08;;;8.10;;
53108;SDS011;39007;53.090;6.074;2023-07-24T09:25:35;14.48;;;7.13;;
53108;SDS011;39007;53.090;6.074;2023-07-24T09:30:37;17.08;;;8.00;;
53108;SDS011;39007;53.090;6.074;2023-07-24T09:33:03;15.05;;;7.22;;
53108;SDS011;39007;53.090;6.074;2023-07-24T09:35:30;14.43;;;7.65;;
53108;SDS011;39007;53.090;6.074;2023-07-24T09:38:06;16.38;;;8.60;;
53108;SDS011;39007;53.090;6.074;2023-07-24T09:40:38;13.73;;;7.30;;
53108;SDS011;39007;53.090;6.074;2023-07-24T09:43:17;18.48;;;7.85;;
53108;SDS011;39007;53.090;6.074;2023-07-24T09:45:44;16.90;;;8.65;;
53108;SDS011;39007;53.090;6.074;2023-07-24T09:48:10;20.20;;;8.88;;
53108;SDS011;39007;53.090;6.074;2023-07-24T09:50:39;18.73;;;8.75;;
53108;SDS011;39007;53.090;6.074;2023-07-24T09:53:05;16.23;;;8.95;;
53108;SDS011;39007;53.090;6.074;2023-07-24T09:55:38;17.13;;;8.65;;
53108;SDS011;39007;53.090;6.074;2023-07-24T09:58:09;14.98;;;7.32;;
53108;SDS011;39007;53.090;6.074;2023-07-24T10:00:36;14.90;;;7.90;;
53108;SDS011;39007;53.090;6.074;2023-07-24T10:03:02;15.95;;;8.50;;
53108;SDS011;39007;53.090;6.074;2023-07-24T10:05:29;15.00;;;8.82;;
53108;SDS011;39007;53.090;6.074;2023-07-24T10:07:55;17.70;;;7.63;;
53108;SDS011;39007;53.090;6.074;2023-07-24T10:10:22;14.25;;;7.78;;
53108;SDS011;39007;53.090;6.074;2023-07-24T10:12:48;13.80;;;6.63;;
53108;SDS011;39007;53.090;6.074;2023-07-24T10:15:14;14.82;;;6.75;;
53108;SDS011;39007;53.090;6.074;2023-07-24T10:17:41;12.82;;;6.70;;
53108;SDS011;39007;53.090;6.074;2023-07-24T10:20:08;18.30;;;8.65;;
53108;SDS011;39007;53.090;6.074;2023-07-24T10:22:35;14.15;;;7.70;;
53108;SDS011;39007;53.090;6.074;2023-07-24T10:25:03;13.07;;;7.07;;
53108;SDS011;39007;53.090;6.074;2023-07-24T10:27:29;14.00;;;7.32;;
53108;SDS011;39007;53.090;6.074;2023-07-24T10:30:03;11.90;;;6.55;;
53108;SDS011;39007;53.090;6.074;2023-07-24T10:32:29;11.13;;;6.35;;
53108;SDS011;39007;53.090;6.074;2023-07-24T10:34:57;11.35;;;6.00;;
53108;SDS011;39007;53.090;6.074;2023-07-24T10:37:33;10.50;;;5.82;;
53108;SDS011;39007;53.090;6.074;2023-07-24T10:40:00;14.68;;;7.10;;
53108;SDS011;39007;53.090;6.074;2023-07-24T10:42:26;11.60;;;6.28;;
53108;SDS011;39007;53.090;6.074;2023-07-24T10:45:03;13.70;;;7.45;;
53108;SDS011;39007;53.090;6.074;2023-07-24T10:47:29;13.43;;;7.13;;
53108;SDS011;39007;53.090;6.074;2023-07-24T10:49:57;13.93;;;7.20;;
53108;SDS011;39007;53.090;6.074;2023-07-24T10:52:30;10.93;;;6.65;;
53108;SDS011;39007;53.090;6.074;2023-07-24T10:54:59;12.25;;;7.15;;
53108;SDS011;39007;53.090;6.074;2023-07-24T10:57:27;12.45;;;6.53;;
53108;SDS011;39007;53.090;6.074;2023-07-24T10:59:53;11.80;;;6.40;;
53108;SDS011;39007;53.090;6.074;2023-07-24T11:02:19;10.70;;;6.60;;
53108;SDS011;39007;53.090;6.074;2023-07-24T11:04:45;13.00;;;7.07;;
53108;SDS011;39007;53.090;6.074;2023-07-24T11:07:12;14.50;;;7.70;;
53108;SDS011;39007;53.090;6.074;2023-07-24T11:09:38;14.00;;;8.27;;
53108;SDS011;39007;53.090;6.074;2023-07-24T11:12:16;12.13;;;7.57;;
53108;SDS011;39007;53.090;6.074;2023-07-24T11:14:45;11.55;;;6.40;;
53108;SDS011;39007;53.090;6.074;2023-07-24T11:17:12;14.32;;;6.25;;
53108;SDS011;39007;53.090;6.074;2023-07-24T11:19:38;13.60;;;6.55;;
53108;SDS011;39007;53.090;6.074;2023-07-24T11:22:04;10.63;;;6.22;;
53108;SDS011;39007;53.090;6.074;2023-07-24T11:24:30;9.18;;;5.18;;
53108;SDS011;39007;53.090;6.074;2023-07-24T11:26:56;10.05;;;5.38;;
53108;SDS011;39007;53.090;6.074;2023-07-24T11:29:23;11.50;;;5.72;;
53108;SDS011;39007;53.090;6.074;2023-07-24T11:31:55;11.68;;;5.32;;
53108;SDS011;39007;53.090;6.074;2023-07-24T11:34:24;9.52;;;5.13;;
53108;SDS011;39007;53.090;6.074;2023-07-24T11:36:50;8.90;;;6.30;;
53108;SDS011;39007;53.090;6.074;2023-07-24T11:39:23;9.10;;;5.78;;
53108;SDS011;39007;53.090;6.074;2023-07-24T11:41:49;8.48;;;5.78;;
53108;SDS011;39007;53.090;6.074;2023-07-24T11:44:15;8.98;;;5.38;;
53108;SDS011;39007;53.090;6.074;2023-07-24T11:46:42;7.75;;;5.45;;
53108;SDS011;39007;53.090;6.074;2023-07-24T11:49:08;9.32;;;5.55;;
53108;SDS011;39007;53.090;6.074;2023-07-24T11:51:36;7.28;;;4.60;;
53108;SDS011;39007;53.090;6.074;2023-07-24T11:54:06;9.05;;;5.13;;
53108;SDS011;39007;53.090;6.074;2023-07-24T11:56:32;6.35;;;4.97;;
53108;SDS011;39007;53.090;6.074;2023-07-24T11:59:08;9.20;;;5.60;;
53108;SDS011;39007;53.090;6.074;2023-07-24T12:01:34;9.10;;;5.57;;
53108;SDS011;39007;53.090;6.074;2023-07-24T12:04:00;10.70;;;6.20;;
53108;SDS011;39007;53.090;6.074;2023-07-24T12:06:26;7.97;;;6.05;;
53108;SDS011;39007;53.090;6.074;2023-07-24T12:08:52;9.27;;;5.32;;
53108;SDS011;39007;53.090;6.074;2023-07-24T12:11:26;10.20;;;5.07;;
53108;SDS011;39007;53.090;6.074;2023-07-24T12:13:52;6.05;;;4.10;;
53108;SDS011;39007;53.090;6.074;2023-07-24T12:16:18;7.82;;;4.03;;
53108;SDS011;39007;53.090;6.074;2023-07-24T12:18:44;9.55;;;4.68;;
53108;SDS011;39007;53.090;6.074;2023-07-24T12:21:10;7.05;;;4.65;;
53108;SDS011;39007;53.090;6.074;2023-07-24T12:23:36;6.95;;;3.90;;
53108;SDS011;39007;53.090;6.074;2023-07-24T12:26:03;6.15;;;3.58;;
53108;SDS011;39007;53.090;6.074;2023-07-24T12:28:29;15.80;;;12.77;;
53108;SDS011;39007;53.090;6.074;2023-07-24T12:30:55;7.57;;;4.63;;
53108;SDS011;39007;53.090;6.074;2023-07-24T12:33:21;5.35;;;3.22;;
53108;SDS011;39007;53.090;6.074;2023-07-24T12:35:50;5.93;;;3.20;;
53108;SDS011;39007;53.090;6.074;2023-07-24T12:38:16;4.95;;;3.08;;
53108;SDS011;39007;53.090;6.074;2023-07-24T12:40:42;6.22;;;3.30;;
53108;SDS011;39007;53.090;6.074;2023-07-24T12:43:09;5.28;;;2.83;;
53108;SDS011;39007;53.090;6.074;2023-07-24T12:45:35;7.25;;;2.50;;
53108;SDS011;39007;53.090;6.074;2023-07-24T12:48:01;4.25;;;2.05;;
53108;SDS011;39007;53.090;6.074;2023-07-24T12:50:27;4.43;;;1.90;;
53108;SDS011;39007;53.090;6.074;2023-07-24T12:52:53;3.40;;;1.63;;
53108;SDS011;39007;53.090;6.074;2023-07-24T12:55:19;3.13;;;1.50;;
53108;SDS011;39007;53.090;6.074;2023-07-24T12:57:45;3.22;;;1.60;;
53108;SDS011;39007;53.090;6.074;2023-07-24T13:00:11;3.33;;;1.58;;
53108;SDS011;39007;53.090;6.074;2023-07-24T13:02:38;3.50;;;1.50;;
53108;SDS011;39007;53.090;6.074;2023-07-24T13:05:04;3.85;;;1.50;;
53108;SDS011;39007;53.090;6.074;2023-07-24T13:07:30;4.55;;;1.58;;
53108;SDS011;39007;53.090;6.074;2023-07-24T13:09:56;3.25;;;1.45;;
53108;SDS011;39007;53.090;6.074;2023-07-24T13:12:22;5.15;;;1.70;;
53108;SDS011;39007;53.090;6.074;2023-07-24T13:14:48;7.50;;;1.90;;
53108;SDS011;39007;53.090;6.074;2023-07-24T13:17:14;4.88;;;2.00;;
53108;SDS011;39007;53.090;6.074;2023-07-24T13:19:40;4.68;;;1.63;;
53108;SDS011;39007;53.090;6.074;2023-07-24T13:22:06;5.93;;;1.88;;
53108;SDS011;39007;53.090;6.074;2023-07-24T13:24:32;7.65;;;2.30;;
53108;SDS011;39007;53.090;6.074;2023-07-24T13:26:58;6.13;;;2.17;;
53108;SDS011;39007;53.090;6.074;2023-07-24T13:29:24;9.15;;;2.35;;
53108;SDS011;39007;53.090;6.074;2023-07-24T13:31:51;8.65;;;2.30;;
53108;SDS011;39007;53.090;6.074;2023-07-24T13:34:17;7.20;;;2.20;;
53108;SDS011;39007;53.090;6.074;2023-07-24T13:36:45;10.60;;;2.53;;
53108;SDS011;39007;53.090;6.074;2023-07-24T13:39:12;6.70;;;2.58;;
53108;SDS011;39007;53.090;6.074;2023-07-24T13:41:38;8.88;;;2.42;;
53108;SDS011;39007;53.090;6.074;2023-07-24T13:44:04;6.35;;;2.20;;
53108;SDS011;39007;53.090;6.074;2023-07-24T13:46:30;9.93;;;2.30;;
53108;SDS011;39007;53.090;6.074;2023-07-24T13:48:56;7.50;;;2.40;;
53108;SDS011;39007;53.090;6.074;2023-07-24T13:51:22;8.60;;;2.13;;
53108;SDS011;39007;53.090;6.074;2023-07-24T13:53:48;6.60;;;2.20;;
53108;SDS011;39007;53.090;6.074;2023-07-24T13:56:17;8.48;;;2.00;;
53108;SDS011;39007;53.090;6.074;2023-07-24T13:58:48;7.38;;;2.00;;
53108;SDS011;39007;53.090;6.074;2023-07-24T14:01:14;8.35;;;2.00;;
53108;SDS011;39007;53.090;6.074;2023-07-24T14:03:40;9.32;;;2.20;;
53108;SDS011;39007;53.090;6.074;2023-07-24T14:06:06;10.93;;;2.50;;
53108;SDS011;39007;53.090;6.074;2023-07-24T14:08:32;9.30;;;2.20;;
53108;SDS011;39007;53.090;6.074;2023-07-24T14:10:58;8.48;;;2.40;;
53108;SDS011;39007;53.090;6.074;2023-07-24T14:13:24;7.90;;;2.22;;
53108;SDS011;39007;53.090;6.074;2023-07-24T14:15:50;7.53;;;2.00;;
53108;SDS011;39007;53.090;6.074;2023-07-24T14:18:16;6.57;;;2.00;;
53108;SDS011;39007;53.090;6.074;2023-07-24T14:20:43;6.15;;;1.80;;
53108;SDS011;39007;53.090;6.074;2023-07-24T14:23:09;10.65;;;2.33;;
53108;SDS011;39007;53.090;6.074;2023-07-24T14:25:35;6.32;;;2.20;;
53108;SDS011;39007;53.090;6.074;2023-07-24T14:28:01;9.50;;;1.98;;
53108;SDS011;39007;53.090;6.074;2023-07-24T14:30:27;6.20;;;2.22;;
53108;SDS011;39007;53.090;6.074;2023-07-24T14:32:53;10.70;;;2.55;;
53108;SDS011;39007;53.090;6.074;2023-07-24T14:35:19;7.97;;;2.08;;
53108;SDS011;39007;53.090;6.074;2023-07-24T14:37:45;8.60;;;2.00;;
53108;SDS011;39007;53.090;6.074;2023-07-24T14:40:11;6.85;;;2.00;;
53108;SDS011;39007;53.090;6.074;2023-07-24T14:42:37;7.38;;;2.03;;
53108;SDS011;39007;53.090;6.074;2023-07-24T14:45:04;7.45;;;2.25;;
53108;SDS011;39007;53.090;6.074;2023-07-24T14:47:30;5.70;;;1.73;;
53108;SDS011;39007;53.090;6.074;2023-07-24T14:49:57;8.30;;;2.03;;